Histria Prince — V7QT2 — position and weather

sailwx.info

Track history (hours):
 
Tides and Currents Weather Stations Pressure Air Temp Water Temp Dewpoint Dewpoint Depression Visibility Wind Speed Wind Dir Waves Ship Positions

Histria Prince

Last reported at 2018-Jun-18 12:55 UTC. Time now 2018-Jun-18 13:26 UTC.
Position N 40°27' E 017°12'.

Length 179 m; draft 7.2 m.

Type: Tanker. MMSI: 538003431.

Date/timePositionNaut miles runAvg speedWind from/ knotsBaromVisibWave heightAir tempDewpointWater temp
2018-Jun-18 12:55N 40°27' E 017°12'0 0.0
2018-Jun-18 12:25N 40°27' E 017°12'0 0.0
2018-Jun-18 11:55N 40°27' E 017°12'0 0.1
2018-Jun-18 11:25N 40°27' E 017°12'0 0.0
2018-Jun-18 10:49N 40°27' E 017°12'0 0.1
2018-Jun-18 10:25N 40°27' E 017°12'0 0.0
2018-Jun-18 09:55N 40°27' E 017°12'0 0.0
2018-Jun-18 09:25N 40°27' E 017°12'0 0.0
2018-Jun-18 08:55N 40°27' E 017°12'0 0.0
2018-Jun-18 08:25N 40°27' E 017°12'0 0.0
2018-Jun-18 07:55N 40°27' E 017°12'0 0.0
2018-Jun-18 07:25N 40°27' E 017°12'0 0.0
2018-Jun-18 06:55N 40°27' E 017°12'0 0.0
2018-Jun-18 06:19N 40°27' E 017°12'0 0.0
2018-Jun-18 05:55N 40°27' E 017°12'0 0.0
2018-Jun-18 05:25N 40°27' E 017°12'0 0.0
2018-Jun-18 04:55N 40°27' E 017°12'0 0.0
2018-Jun-18 04:25N 40°27' E 017°12'0 0.0
2018-Jun-18 03:55N 40°27' E 017°12'0 0.0
2018-Jun-18 03:25N 40°27' E 017°12'0 0.0
2018-Jun-18 02:55N 40°27' E 017°12'0 0.0
2018-Jun-18 02:25N 40°27' E 017°12'0 0.0
2018-Jun-18 01:55N 40°27' E 017°12'0 0.0
2018-Jun-18 01:25N 40°27' E 017°12'0 0.0
2018-Jun-18 00:55N 40°27' E 017°12'0 0.1
2018-Jun-18 00:25N 40°27' E 017°12'0 0.0
2018-Jun-17 23:55N 40°27' E 017°12'0 0.0
2018-Jun-17 23:25N 40°27' E 017°12'0 0.0
2018-Jun-17 22:55N 40°27' E 017°12'0 0.0
2018-Jun-17 22:25N 40°27' E 017°12'0 0.0
2018-Jun-17 21:55N 40°27' E 017°12'0 0.0
2018-Jun-17 21:25N 40°27' E 017°12'0 0.1
2018-Jun-17 20:55N 40°27' E 017°12'0 0.1
2018-Jun-17 20:25N 40°27' E 017°12'0 0.0
2018-Jun-17 19:55N 40°27' E 017°12'0 0.0
2018-Jun-17 19:19N 40°27' E 017°12'0 0.1
2018-Jun-17 18:55N 40°27' E 017°12'0 0.1
2018-Jun-17 18:25N 40°27' E 017°12'0 0.1
2018-Jun-17 17:55N 40°27' E 017°12'0 0.0
2018-Jun-17 17:25N 40°27' E 017°12'0 0.0
2018-Jun-17 16:55N 40°27' E 017°12'0 0.0
2018-Jun-17 16:25N 40°27' E 017°12'0 0.0
2018-Jun-17 15:49N 40°27' E 017°12'0 0.2
2018-Jun-17 15:25N 40°27' E 017°12'0 0.2
2018-Jun-17 14:55N 40°27' E 017°12'0 0.0
2018-Jun-17 14:25N 40°27' E 017°12'0 0.1
2018-Jun-17 13:55N 40°27' E 017°12'0 0.4
2018-Jun-17 13:25N 40°27' E 017°11'1 2.1
2018-Jun-17 13:00N 40°26' E 017°11'4 6.9
2018-Jun-17 12:30N 40°24' E 017°08'202 4.1
2018-Jun-15 10:41N 37°12' E 015°47'  
2018-Jun-13 02:04N 43°14' E 005°00'112.8
2018-Jun-13 02:01N 43°15' E 004°60'612.6
2018-Jun-13 01:30N 43°21' E 004°58'4 8.5
2018-Jun-13 01:00N 43°24' E 004°54'1 0.0
2018-Jun-11 13:38N 43°25' E 004°53'0 0.1
2018-Jun-11 13:30N 43°25' E 004°53'2 3.8
2018-Jun-11 13:00N 43°24' E 004°55'4 7.6
2018-Jun-11 12:30N 43°21' E 004°58'611.4
2018-Jun-11 11:59N 43°15' E 005°01'510.7
2018-Jun-11 11:30N 43°11' E 005°06'8111.8
2018-Jun-11 04:39N 42°48' E 006°51'212.1
2018-Jun-11 04:30N 42°49' E 006°54'612.1
2018-Jun-11 04:00N 42°50' E 007°02'612.2
2018-Jun-11 03:29N 42°51' E 007°10'612.2
2018-Jun-11 03:00N 42°52' E 007°18'612.4
2018-Jun-11 02:30N 42°53' E 007°27'612.4
2018-Jun-11 02:00N 42°53' E 007°35'612.3
2018-Jun-11 01:30N 42°55' E 007°43'612.7
2018-Jun-11 01:00N 42°57' E 007°51'612.7
2018-Jun-11 00:30N 42°58' E 008°00'612.5
2018-Jun-11 00:00N 42°59' E 008°08'611.9
2018-Jun-10 23:30N 43°03' E 008°15'612.1
2018-Jun-10 23:00N 43°02' E 008°23'612.3
2018-Jun-10 22:30N 43°03' E 008°32'612.4
2018-Jun-10 22:00N 43°03' E 008°40'612.6
2018-Jun-10 21:30N 43°05' E 008°49'612.7
2018-Jun-10 21:00N 43°06' E 008°57'612.8
2018-Jun-10 20:30N 43°07' E 009°06'612.6
2018-Jun-10 20:00N 43°08' E 009°14'612.5
2018-Jun-10 19:30N 43°09' E 009°23'611.9
2018-Jun-10 19:00N 43°08' E 009°31'612.6
2018-Jun-10 18:30N 43°04' E 009°37'612.5
2018-Jun-10 18:00N 42°58' E 009°40'613.0
2018-Jun-10 17:30N 42°52' E 009°42'713.0
2018-Jun-10 17:00N 42°45' E 009°44'613.0
2018-Jun-10 16:30N 42°39' E 009°46'1313.0
2018-Jun-10 15:30N 42°27' E 009°50'612.8
2018-Jun-10 15:00N 42°20' E 009°52'612.8
2018-Jun-10 14:30N 42°16' E 009°59'9112.6
2018-Jun-10 07:17N 41°18' E 011°33'512.7
2018-Jun-10 06:54N 41°14' E 011°38'812.9
2018-Jun-10 06:15N 41°09' E 011°46'613.0
2018-Jun-10 05:46N 41°05' E 011°52'612.7
2018-Jun-10 05:20N 41°01' E 011°58'1512.4
2018-Jun-10 04:08N 40°52' E 012°13'612.3
2018-Jun-10 03:41N 40°48' E 012°19'20412.2
2018-Jun-09 10:54N 38°32' E 015°36'511.8
2018-Jun-09 10:27N 38°27' E 015°39'711.8
2018-Jun-09 09:52N 38°21' E 015°41'6 8.3
2018-Jun-09 09:10N 38°15' E 015°39'211.2
2018-Jun-09 08:59N 38°14' E 015°37'510.9
2018-Jun-09 08:30N 38°09' E 015°36'610.6
2018-Jun-09 07:58N 38°03' E 015°35'712.1
2018-Jun-09 07:26N 37°56' E 015°35'612.2
2018-Jun-09 06:56N 37°52' E 015°41'1411.7
2018-Jun-09 05:46N 37°48' E 015°57'16610.8
2018-Jun-08 14:30N 40°25' E 017°08'4 7.9
2018-Jun-08 14:00N 40°27' E 017°12'1 2.0
2018-Jun-08 13:30N 40°28' E 017°12'0 0.0
2018-Jun-08 12:57N 40°28' E 017°12'  
Track history (hours):
 
Tides and Currents Weather Stations Pressure Air Temp Water Temp Dewpoint Dewpoint Depression Visibility Wind Speed Wind Dir Waves Ship Positions

Histria Prince

Last reported at 2018-Jun-18 12:55 UTC. Time now 2018-Jun-18 13:26 UTC.
Position N 40°27' E 017°12'.

Length 179 m; draft 7.2 m.

Type: Tanker. MMSI: 538003431.

Date/timePositionNaut miles runAvg speedWind from/ knotsBaromVisibWave heightAir tempDewpointWater temp
2018-Jun-18 12:55N 40°27' E 017°12'0 0.0
2018-Jun-18 12:25N 40°27' E 017°12'0 0.0
2018-Jun-18 11:55N 40°27' E 017°12'0 0.1
2018-Jun-18 11:25N 40°27' E 017°12'0 0.0
2018-Jun-18 10:49N 40°27' E 017°12'0 0.1
2018-Jun-18 10:25N 40°27' E 017°12'0 0.0
2018-Jun-18 09:55N 40°27' E 017°12'0 0.0
2018-Jun-18 09:25N 40°27' E 017°12'0 0.0
2018-Jun-18 08:55N 40°27' E 017°12'0 0.0
2018-Jun-18 08:25N 40°27' E 017°12'0 0.0
2018-Jun-18 07:55N 40°27' E 017°12'0 0.0
2018-Jun-18 07:25N 40°27' E 017°12'0 0.0
2018-Jun-18 06:55N 40°27' E 017°12'0 0.0
2018-Jun-18 06:19N 40°27' E 017°12'0 0.0
2018-Jun-18 05:55N 40°27' E 017°12'0 0.0
2018-Jun-18 05:25N 40°27' E 017°12'0 0.0
2018-Jun-18 04:55N 40°27' E 017°12'0 0.0
2018-Jun-18 04:25N 40°27' E 017°12'0 0.0
2018-Jun-18 03:55N 40°27' E 017°12'0 0.0
2018-Jun-18 03:25N 40°27' E 017°12'0 0.0
2018-Jun-18 02:55N 40°27' E 017°12'0 0.0
2018-Jun-18 02:25N 40°27' E 017°12'0 0.0
2018-Jun-18 01:55N 40°27' E 017°12'0 0.0
2018-Jun-18 01:25N 40°27' E 017°12'0 0.0
2018-Jun-18 00:55N 40°27' E 017°12'0 0.1
2018-Jun-18 00:25N 40°27' E 017°12'0 0.0
2018-Jun-17 23:55N 40°27' E 017°12'0 0.0
2018-Jun-17 23:25N 40°27' E 017°12'0 0.0
2018-Jun-17 22:55N 40°27' E 017°12'0 0.0
2018-Jun-17 22:25N 40°27' E 017°12'0 0.0
2018-Jun-17 21:55N 40°27' E 017°12'0 0.0
2018-Jun-17 21:25N 40°27' E 017°12'0 0.1
2018-Jun-17 20:55N 40°27' E 017°12'0 0.1
2018-Jun-17 20:25N 40°27' E 017°12'0 0.0
2018-Jun-17 19:55N 40°27' E 017°12'0 0.0
2018-Jun-17 19:19N 40°27' E 017°12'0 0.1
2018-Jun-17 18:55N 40°27' E 017°12'0 0.1
2018-Jun-17 18:25N 40°27' E 017°12'0 0.1
2018-Jun-17 17:55N 40°27' E 017°12'0 0.0
2018-Jun-17 17:25N 40°27' E 017°12'0 0.0
2018-Jun-17 16:55N 40°27' E 017°12'0 0.0
2018-Jun-17 16:25N 40°27' E 017°12'0 0.0
2018-Jun-17 15:49N 40°27' E 017°12'0 0.2
2018-Jun-17 15:25N 40°27' E 017°12'0 0.2
2018-Jun-17 14:55N 40°27' E 017°12'0 0.0
2018-Jun-17 14:25N 40°27' E 017°12'0 0.1
2018-Jun-17 13:55N 40°27' E 017°12'0 0.4
2018-Jun-17 13:25N 40°27' E 017°11'1 2.1
2018-Jun-17 13:00N 40°26' E 017°11'4 6.9
2018-Jun-17 12:30N 40°24' E 017°08'202 4.1
2018-Jun-15 10:41N 37°12' E 015°47'  
2018-Jun-13 02:04N 43°14' E 005°00'112.8
2018-Jun-13 02:01N 43°15' E 004°60'612.6
2018-Jun-13 01:30N 43°21' E 004°58'4 8.5
2018-Jun-13 01:00N 43°24' E 004°54'1 0.0
2018-Jun-11 13:38N 43°25' E 004°53'0 0.1
2018-Jun-11 13:30N 43°25' E 004°53'2 3.8
2018-Jun-11 13:00N 43°24' E 004°55'4 7.6
2018-Jun-11 12:30N 43°21' E 004°58'611.4
2018-Jun-11 11:59N 43°15' E 005°01'510.7
2018-Jun-11 11:30N 43°11' E 005°06'8111.8
2018-Jun-11 04:39N 42°48' E 006°51'212.1
2018-Jun-11 04:30N 42°49' E 006°54'612.1
2018-Jun-11 04:00N 42°50' E 007°02'612.2
2018-Jun-11 03:29N 42°51' E 007°10'612.2
2018-Jun-11 03:00N 42°52' E 007°18'612.4
2018-Jun-11 02:30N 42°53' E 007°27'612.4
2018-Jun-11 02:00N 42°53' E 007°35'612.3
2018-Jun-11 01:30N 42°55' E 007°43'612.7
2018-Jun-11 01:00N 42°57' E 007°51'612.7
2018-Jun-11 00:30N 42°58' E 008°00'612.5
2018-Jun-11 00:00N 42°59' E 008°08'611.9
2018-Jun-10 23:30N 43°03' E 008°15'612.1
2018-Jun-10 23:00N 43°02' E 008°23'612.3
2018-Jun-10 22:30N 43°03' E 008°32'612.4
2018-Jun-10 22:00N 43°03' E 008°40'612.6
2018-Jun-10 21:30N 43°05' E 008°49'612.7
2018-Jun-10 21:00N 43°06' E 008°57'612.8
2018-Jun-10 20:30N 43°07' E 009°06'612.6
2018-Jun-10 20:00N 43°08' E 009°14'612.5
2018-Jun-10 19:30N 43°09' E 009°23'611.9
2018-Jun-10 19:00N 43°08' E 009°31'612.6
2018-Jun-10 18:30N 43°04' E 009°37'612.5
2018-Jun-10 18:00N 42°58' E 009°40'613.0
2018-Jun-10 17:30N 42°52' E 009°42'713.0
2018-Jun-10 17:00N 42°45' E 009°44'613.0
2018-Jun-10 16:30N 42°39' E 009°46'1313.0
2018-Jun-10 15:30N 42°27' E 009°50'612.8
2018-Jun-10 15:00N 42°20' E 009°52'612.8
2018-Jun-10 14:30N 42°16' E 009°59'9112.6
2018-Jun-10 07:17N 41°18' E 011°33'512.7
2018-Jun-10 06:54N 41°14' E 011°38'812.9
2018-Jun-10 06:15N 41°09' E 011°46'613.0
2018-Jun-10 05:46N 41°05' E 011°52'612.7
2018-Jun-10 05:20N 41°01' E 011°58'1512.4
2018-Jun-10 04:08N 40°52' E 012°13'612.3
2018-Jun-10 03:41N 40°48' E 012°19'20412.2
2018-Jun-09 10:54N 38°32' E 015°36'511.8
2018-Jun-09 10:27N 38°27' E 015°39'711.8
2018-Jun-09 09:52N 38°21' E 015°41'6 8.3
2018-Jun-09 09:10N 38°15' E 015°39'211.2
2018-Jun-09 08:59N 38°14' E 015°37'510.9
2018-Jun-09 08:30N 38°09' E 015°36'610.6
2018-Jun-09 07:58N 38°03' E 015°35'712.1
2018-Jun-09 07:26N 37°56' E 015°35'612.2
2018-Jun-09 06:56N 37°52' E 015°41'1411.7
2018-Jun-09 05:46N 37°48' E 015°57'16610.8
2018-Jun-08 14:30N 40°25' E 017°08'4 7.9
2018-Jun-08 14:00N 40°27' E 017°12'1 2.0
2018-Jun-08 13:30N 40°28' E 017°12'0 0.0
2018-Jun-08 12:57N 40°28' E 017°12'  

Dump ship's entire track history